F/V Judine — FPMI — position and weather

sailwx.info

Track history (hours):
 
Tides and Currents Weather Stations Pressure Air Temp Water Temp Dewpoint Dewpoint Depression Visibility Wind Speed Wind Dir Waves Ship Positions

F/V Judine

Last reported at 2018-Feb-19 18:06 UTC. Time now 2018-Feb-22 10:37 UTC.
Position N 46°55' W 002°30'.

Length 22 m.

Type: Fishing. MMSI: 227577000.

Date/timePositionNaut miles runAvg speedWind from/ knotsBaromVisibWave heightAir tempDewpointWater temp
2018-Feb-19 18:06N 46°55' W 002°30'1 5.1
2018-Feb-19 17:52N 46°56' W 002°28'2 5.2
2018-Feb-19 17:29N 46°58' W 002°26'3 5.4
2018-Feb-19 17:00N 46°60' W 002°24'2 3.4
2018-Feb-19 16:30N 47°01' W 002°22'2 4.6
2018-Feb-19 16:00N 47°02' W 002°19'1 1.8
2018-Feb-19 15:30N 47°02' W 002°18'0 0.0
2018-Feb-19 15:00N 47°02' W 002°18'0 0.0
2018-Feb-19 14:30N 47°02' W 002°18'0 0.0
2018-Feb-19 14:00N 47°02' W 002°18'2 4.0
2018-Feb-19 13:31N 47°01' W 002°21'31 0.8
2018-Feb-17 21:00N 46°43' W 002°57'2 0.1
2018-Feb-16 13:22N 46°45' W 002°57'1 1.5
2018-Feb-16 12:54N 46°46' W 002°57'0 1.1
2018-Feb-16 12:29N 46°46' W 002°57'0 0.8
2018-Feb-16 11:58N 46°46' W 002°57'1 1.5
2018-Feb-16 11:00N 46°44' W 002°56'2 0.7
2018-Feb-16 08:33N 46°46' W 002°57'0 1.1
2018-Feb-16 08:23N 46°46' W 002°57'0 0.3
2018-Feb-16 07:48N 46°46' W 002°57'1 0.2
2018-Feb-16 00:33N 46°45' W 002°57'11 3.0
2018-Feb-15 20:49N 46°51' W 002°44'1 3.8
2018-Feb-15 20:26N 46°52' W 002°42'3 3.8
2018-Feb-15 19:31N 46°54' W 002°38'0 3.8
2018-Feb-15 19:30N 46°54' W 002°37'2 3.8
2018-Feb-15 18:59N 46°55' W 002°35'2 3.7
2018-Feb-15 18:29N 46°56' W 002°33'2 2.2
2018-Feb-15 17:28N 46°57' W 002°30'2 3.6
2018-Feb-15 16:58N 46°58' W 002°28'1 3.1
2018-Feb-15 16:30N 46°59' W 002°26'3 5.7
2018-Feb-15 16:00N 47°00' W 002°22'3 6.2
2018-Feb-15 15:29N 47°02' W 002°18'0 0.0
2018-Feb-15 15:00N 47°02' W 002°18'0 0.0
2018-Feb-15 14:30N 47°02' W 002°18'1 1.5
2018-Feb-15 14:00N 47°02' W 002°19'4 9.0
2018-Feb-15 13:31N 46°59' W 002°25'5 9.4
2018-Feb-15 12:57N 46°57' W 002°31'  
2018-Feb-11 15:45N 46°58' W 002°27'2 9.7
2018-Feb-11 15:30N 46°59' W 002°25'5 9.7
2018-Feb-11 15:00N 47°02' W 002°19'1 1.5
2018-Feb-11 14:30N 47°02' W 002°18'0 0.0
2018-Feb-11 14:00N 47°02' W 002°18'0 1.0
2018-Feb-11 13:30N 47°02' W 002°18'  
Track history (hours):
 
Tides and Currents Weather Stations Pressure Air Temp Water Temp Dewpoint Dewpoint Depression Visibility Wind Speed Wind Dir Waves Ship Positions

F/V Judine

Last reported at 2018-Feb-19 18:06 UTC. Time now 2018-Feb-22 10:37 UTC.
Position N 46°55' W 002°30'.

Length 22 m.

Type: Fishing. MMSI: 227577000.

Date/timePositionNaut miles runAvg speedWind from/ knotsBaromVisibWave heightAir tempDewpointWater temp
2018-Feb-19 18:06N 46°55' W 002°30'1 5.1
2018-Feb-19 17:52N 46°56' W 002°28'2 5.2
2018-Feb-19 17:29N 46°58' W 002°26'3 5.4
2018-Feb-19 17:00N 46°60' W 002°24'2 3.4
2018-Feb-19 16:30N 47°01' W 002°22'2 4.6
2018-Feb-19 16:00N 47°02' W 002°19'1 1.8
2018-Feb-19 15:30N 47°02' W 002°18'0 0.0
2018-Feb-19 15:00N 47°02' W 002°18'0 0.0
2018-Feb-19 14:30N 47°02' W 002°18'0 0.0
2018-Feb-19 14:00N 47°02' W 002°18'2 4.0
2018-Feb-19 13:31N 47°01' W 002°21'31 0.8
2018-Feb-17 21:00N 46°43' W 002°57'2 0.1
2018-Feb-16 13:22N 46°45' W 002°57'1 1.5
2018-Feb-16 12:54N 46°46' W 002°57'0 1.1
2018-Feb-16 12:29N 46°46' W 002°57'0 0.8
2018-Feb-16 11:58N 46°46' W 002°57'1 1.5
2018-Feb-16 11:00N 46°44' W 002°56'2 0.7
2018-Feb-16 08:33N 46°46' W 002°57'0 1.1
2018-Feb-16 08:23N 46°46' W 002°57'0 0.3
2018-Feb-16 07:48N 46°46' W 002°57'1 0.2
2018-Feb-16 00:33N 46°45' W 002°57'11 3.0
2018-Feb-15 20:49N 46°51' W 002°44'1 3.8
2018-Feb-15 20:26N 46°52' W 002°42'3 3.8
2018-Feb-15 19:31N 46°54' W 002°38'0 3.8
2018-Feb-15 19:30N 46°54' W 002°37'2 3.8
2018-Feb-15 18:59N 46°55' W 002°35'2 3.7
2018-Feb-15 18:29N 46°56' W 002°33'2 2.2
2018-Feb-15 17:28N 46°57' W 002°30'2 3.6
2018-Feb-15 16:58N 46°58' W 002°28'1 3.1
2018-Feb-15 16:30N 46°59' W 002°26'3 5.7
2018-Feb-15 16:00N 47°00' W 002°22'3 6.2
2018-Feb-15 15:29N 47°02' W 002°18'0 0.0
2018-Feb-15 15:00N 47°02' W 002°18'0 0.0
2018-Feb-15 14:30N 47°02' W 002°18'1 1.5
2018-Feb-15 14:00N 47°02' W 002°19'4 9.0
2018-Feb-15 13:31N 46°59' W 002°25'5 9.4
2018-Feb-15 12:57N 46°57' W 002°31'  
2018-Feb-11 15:45N 46°58' W 002°27'2 9.7
2018-Feb-11 15:30N 46°59' W 002°25'5 9.7
2018-Feb-11 15:00N 47°02' W 002°19'1 1.5
2018-Feb-11 14:30N 47°02' W 002°18'0 0.0
2018-Feb-11 14:00N 47°02' W 002°18'0 1.0
2018-Feb-11 13:30N 47°02' W 002°18'  

Dump ship's entire track history